sensor_id;sensor_type;location;lat;lon;timestamp;temperature;humidity
52073;DHT22;38074;51.232;6.826;2022-10-31T00:07:14;24.00;53.60
52073;DHT22;38074;51.232;6.826;2022-10-31T00:14:29;24.00;53.60
52073;DHT22;38074;51.232;6.826;2022-10-31T00:21:45;24.00;53.60
52073;DHT22;38074;51.232;6.826;2022-10-31T00:29:00;24.00;53.60
52073;DHT22;38074;51.232;6.826;2022-10-31T00:36:18;24.00;53.70
52073;DHT22;38074;51.232;6.826;2022-10-31T00:43:34;24.00;53.60
52073;DHT22;38074;51.232;6.826;2022-10-31T00:50:50;24.00;53.60
52073;DHT22;38074;51.232;6.826;2022-10-31T00:58:05;24.00;53.50
52073;DHT22;38074;51.232;6.826;2022-10-31T01:05:21;24.00;53.60
52073;DHT22;38074;51.232;6.826;2022-10-31T01:12:43;24.00;53.60
52073;DHT22;38074;51.232;6.826;2022-10-31T01:19:59;24.00;53.60
52073;DHT22;38074;51.232;6.826;2022-10-31T01:27:15;24.00;53.60
52073;DHT22;38074;51.232;6.826;2022-10-31T01:34:30;24.00;53.60
52073;DHT22;38074;51.232;6.826;2022-10-31T01:41:48;24.00;53.50
52073;DHT22;38074;51.232;6.826;2022-10-31T01:49:11;24.00;53.50
52073;DHT22;38074;51.232;6.826;2022-10-31T01:56:28;24.00;53.40
52073;DHT22;38074;51.232;6.826;2022-10-31T02:03:44;23.90;53.40
52073;DHT22;38074;51.232;6.826;2022-10-31T02:11:00;23.90;53.40
52073;DHT22;38074;51.232;6.826;2022-10-31T02:18:17;23.90;53.40
52073;DHT22;38074;51.232;6.826;2022-10-31T02:33:36;23.90;53.30
52073;DHT22;38074;51.232;6.826;2022-10-31T02:41:07;23.90;53.30
52073;DHT22;38074;51.232;6.826;2022-10-31T02:48:28;23.90;53.30
52073;DHT22;38074;51.232;6.826;2022-10-31T02:56:06;23.90;53.40
52073;DHT22;38074;51.232;6.826;2022-10-31T03:03:45;23.90;53.30
52073;DHT22;38074;51.232;6.826;2022-10-31T03:11:08;23.90;53.30
52073;DHT22;38074;51.232;6.826;2022-10-31T03:18:30;23.90;53.30
52073;DHT22;38074;51.232;6.826;2022-10-31T03:25:48;23.90;53.20
52073;DHT22;38074;51.232;6.826;2022-10-31T03:33:08;23.90;53.30
52073;DHT22;38074;51.232;6.826;2022-10-31T03:40:26;23.90;53.20
52073;DHT22;38074;51.232;6.826;2022-10-31T03:47:43;23.90;53.30
52073;DHT22;38074;51.232;6.826;2022-10-31T03:55:05;23.90;53.20
52073;DHT22;38074;51.232;6.826;2022-10-31T04:02:27;23.90;53.20
52073;DHT22;38074;51.232;6.826;2022-10-31T04:09:45;23.90;53.20
52073;DHT22;38074;51.232;6.826;2022-10-31T04:17:03;23.90;53.20
52073;DHT22;38074;51.232;6.826;2022-10-31T04:24:20;23.90;53.20
52073;DHT22;38074;51.232;6.826;2022-10-31T04:31:36;23.90;53.20
52073;DHT22;38074;51.232;6.826;2022-10-31T04:38:51;23.90;53.30
52073;DHT22;38074;51.232;6.826;2022-10-31T04:46:07;23.90;53.20
52073;DHT22;38074;51.232;6.826;2022-10-31T04:53:22;23.90;53.20
52073;DHT22;38074;51.232;6.826;2022-10-31T05:00:37;23.90;53.20
52073;DHT22;38074;51.232;6.826;2022-10-31T05:07:53;23.90;53.10
52073;DHT22;38074;51.232;6.826;2022-10-31T05:15:09;23.90;53.10
52073;DHT22;38074;51.232;6.826;2022-10-31T05:22:25;23.90;53.10
52073;DHT22;38074;51.232;6.826;2022-10-31T05:29:40;23.90;53.10
52073;DHT22;38074;51.232;6.826;2022-10-31T05:36:56;23.90;53.10
52073;DHT22;38074;51.232;6.826;2022-10-31T05:44:11;23.90;53.10
52073;DHT22;38074;51.232;6.826;2022-10-31T05:51:27;23.90;53.70
52073;DHT22;38074;51.232;6.826;2022-10-31T05:58:42;23.90;53.00
52073;DHT22;38074;51.232;6.826;2022-10-31T06:05:58;23.90;53.00
52073;DHT22;38074;51.232;6.826;2022-10-31T06:13:13;23.90;53.00
52073;DHT22;38074;51.232;6.826;2022-10-31T06:20:30;23.90;53.00
52073;DHT22;38074;51.232;6.826;2022-10-31T06:27:48;23.90;53.00
52073;DHT22;38074;51.232;6.826;2022-10-31T06:35:04;23.90;53.00
52073;DHT22;38074;51.232;6.826;2022-10-31T06:42:20;23.90;53.00
52073;DHT22;38074;51.232;6.826;2022-10-31T06:49:35;23.90;53.00
52073;DHT22;38074;51.232;6.826;2022-10-31T06:56:51;23.90;52.90
52073;DHT22;38074;51.232;6.826;2022-10-31T07:04:10;23.90;53.00
52073;DHT22;38074;51.232;6.826;2022-10-31T07:11:26;23.90;52.90
52073;DHT22;38074;51.232;6.826;2022-10-31T07:18:44;23.90;52.90
52073;DHT22;38074;51.232;6.826;2022-10-31T07:25:59;23.90;52.90
52073;DHT22;38074;51.232;6.826;2022-10-31T07:33:15;23.90;52.90
52073;DHT22;38074;51.232;6.826;2022-10-31T07:40:30;23.90;53.00
52073;DHT22;38074;51.232;6.826;2022-10-31T07:47:48;23.90;53.00
52073;DHT22;38074;51.232;6.826;2022-10-31T07:55:05;23.90;52.90
52073;DHT22;38074;51.232;6.826;2022-10-31T08:02:20;23.90;53.00
52073;DHT22;38074;51.232;6.826;2022-10-31T08:09:36;23.90;53.00
52073;DHT22;38074;51.232;6.826;2022-10-31T08:16:52;23.90;53.00
52073;DHT22;38074;51.232;6.826;2022-10-31T08:24:08;23.90;53.00
52073;DHT22;38074;51.232;6.826;2022-10-31T08:31:24;23.90;53.00
52073;DHT22;38074;51.232;6.826;2022-10-31T08:38:41;23.90;53.00
52073;DHT22;38074;51.232;6.826;2022-10-31T08:45:57;24.00;53.10
52073;DHT22;38074;51.232;6.826;2022-10-31T08:53:17;24.00;53.10
52073;DHT22;38074;51.232;6.826;2022-10-31T09:00:34;24.00;53.10
52073;DHT22;38074;51.232;6.826;2022-10-31T09:07:50;24.00;53.10
52073;DHT22;38074;51.232;6.826;2022-10-31T09:15:05;24.00;53.10
52073;DHT22;38074;51.232;6.826;2022-10-31T09:22:21;24.00;53.10
52073;DHT22;38074;51.232;6.826;2022-10-31T09:29:37;24.00;53.10
52073;DHT22;38074;51.232;6.826;2022-10-31T09:36:53;24.00;53.10
52073;DHT22;38074;51.232;6.826;2022-10-31T09:44:24;24.00;53.10
52073;DHT22;38074;51.232;6.826;2022-10-31T09:51:43;24.00;53.10
52073;DHT22;38074;51.232;6.826;2022-10-31T09:59:01;24.00;53.20
52073;DHT22;38074;51.232;6.826;2022-10-31T10:06:21;24.00;53.20
52073;DHT22;38074;51.232;6.826;2022-10-31T10:29:37;24.00;53.20
52073;DHT22;38074;51.232;6.826;2022-10-31T10:44:47;24.00;53.20
52073;DHT22;38074;51.232;6.826;2022-10-31T10:52:46;24.00;53.20
52073;DHT22;38074;51.232;6.826;2022-10-31T11:00:20;24.00;53.30
52073;DHT22;38074;51.232;6.826;2022-10-31T11:07:39;24.00;53.30
52073;DHT22;38074;51.232;6.826;2022-10-31T11:14:58;24.00;53.30
52073;DHT22;38074;51.232;6.826;2022-10-31T11:22:19;24.00;53.30
52073;DHT22;38074;51.232;6.826;2022-10-31T11:29:34;24.00;53.40
52073;DHT22;38074;51.232;6.826;2022-10-31T11:36:51;24.00;53.30
52073;DHT22;38074;51.232;6.826;2022-10-31T11:44:23;24.00;53.40
52073;DHT22;38074;51.232;6.826;2022-10-31T11:51:40;24.00;53.40
52073;DHT22;38074;51.232;6.826;2022-10-31T11:59:21;24.00;53.40
52073;DHT22;38074;51.232;6.826;2022-10-31T12:06:41;24.00;53.40
52073;DHT22;38074;51.232;6.826;2022-10-31T12:21:55;24.00;53.50
52073;DHT22;38074;51.232;6.826;2022-10-31T12:36:59;24.00;53.40
52073;DHT22;38074;51.232;6.826;2022-10-31T13:06:57;24.00;53.30
52073;DHT22;38074;51.232;6.826;2022-10-31T13:14:33;24.00;53.20
52073;DHT22;38074;51.232;6.826;2022-10-31T13:22:05;24.00;53.10
52073;DHT22;38074;51.232;6.826;2022-10-31T13:29:29;24.00;53.10
52073;DHT22;38074;51.232;6.826;2022-10-31T13:37:14;24.00;53.10
52073;DHT22;38074;51.232;6.826;2022-10-31T13:44:35;24.00;53.00
52073;DHT22;38074;51.232;6.826;2022-10-31T13:51:52;24.00;53.00
52073;DHT22;38074;51.232;6.826;2022-10-31T14:06:38;24.00;53.00
52073;DHT22;38074;51.232;6.826;2022-10-31T14:13:57;24.00;52.90
52073;DHT22;38074;51.232;6.826;2022-10-31T14:21:16;24.00;52.90
52073;DHT22;38074;51.232;6.826;2022-10-31T14:28:34;24.00;52.80
52073;DHT22;38074;51.232;6.826;2022-10-31T14:35:58;24.00;52.80
52073;DHT22;38074;51.232;6.826;2022-10-31T14:50:59;24.00;52.90
52073;DHT22;38074;51.232;6.826;2022-10-31T14:58:22;24.00;52.90
52073;DHT22;38074;51.232;6.826;2022-10-31T15:06:25;24.00;52.80
52073;DHT22;38074;51.232;6.826;2022-10-31T15:13:22;24.00;52.90
52073;DHT22;38074;51.232;6.826;2022-10-31T15:20:42;24.00;52.90
52073;DHT22;38074;51.232;6.826;2022-10-31T15:27:59;24.00;52.80
52073;DHT22;38074;51.232;6.826;2022-10-31T15:35:29;24.00;52.80
52073;DHT22;38074;51.232;6.826;2022-10-31T15:42:49;24.00;52.70
52073;DHT22;38074;51.232;6.826;2022-10-31T15:50:19;24.00;52.70
52073;DHT22;38074;51.232;6.826;2022-10-31T15:57:44;24.00;52.70
52073;DHT22;38074;51.232;6.826;2022-10-31T16:05:00;24.00;52.50
52073;DHT22;38074;51.232;6.826;2022-10-31T16:12:16;24.00;52.60
52073;DHT22;38074;51.232;6.826;2022-10-31T16:19:34;24.00;52.60
52073;DHT22;38074;51.232;6.826;2022-10-31T16:26:52;24.00;52.40
52073;DHT22;38074;51.232;6.826;2022-10-31T16:34:21;24.00;52.40
52073;DHT22;38074;51.232;6.826;2022-10-31T16:41:45;24.00;52.40
52073;DHT22;38074;51.232;6.826;2022-10-31T16:49:01;24.00;52.30
52073;DHT22;38074;51.232;6.826;2022-10-31T16:56:21;23.90;52.30
52073;DHT22;38074;51.232;6.826;2022-10-31T17:03:38;24.00;52.30
52073;DHT22;38074;51.232;6.826;2022-10-31T17:10:55;24.00;52.30
52073;DHT22;38074;51.232;6.826;2022-10-31T17:18:15;24.00;52.20
52073;DHT22;38074;51.232;6.826;2022-10-31T17:25:31;24.00;52.20
52073;DHT22;38074;51.232;6.826;2022-10-31T17:32:47;23.90;52.00
52073;DHT22;38074;51.232;6.826;2022-10-31T17:40:04;24.00;52.10
52073;DHT22;38074;51.232;6.826;2022-10-31T17:47:19;24.00;52.00
52073;DHT22;38074;51.232;6.826;2022-10-31T17:54:35;23.90;51.90
52073;DHT22;38074;51.232;6.826;2022-10-31T18:01:50;23.90;51.90
52073;DHT22;38074;51.232;6.826;2022-10-31T18:09:06;23.90;51.90
52073;DHT22;38074;51.232;6.826;2022-10-31T18:16:22;23.90;51.80
52073;DHT22;38074;51.232;6.826;2022-10-31T18:23:38;24.00;51.90
52073;DHT22;38074;51.232;6.826;2022-10-31T18:30:53;23.90;51.90
52073;DHT22;38074;51.232;6.826;2022-10-31T18:38:09;23.90;51.80
52073;DHT22;38074;51.232;6.826;2022-10-31T18:45:24;23.90;51.80
52073;DHT22;38074;51.232;6.826;2022-10-31T18:52:40;23.90;51.80
52073;DHT22;38074;51.232;6.826;2022-10-31T18:59:56;23.90;51.70
52073;DHT22;38074;51.232;6.826;2022-10-31T19:07:11;23.90;51.60
52073;DHT22;38074;51.232;6.826;2022-10-31T19:14:27;23.90;51.70
52073;DHT22;38074;51.232;6.826;2022-10-31T19:21:42;23.90;51.80
52073;DHT22;38074;51.232;6.826;2022-10-31T19:28:58;23.90;51.80
52073;DHT22;38074;51.232;6.826;2022-10-31T19:36:15;23.90;51.70
52073;DHT22;38074;51.232;6.826;2022-10-31T19:43:32;23.90;51.70
52073;DHT22;38074;51.232;6.826;2022-10-31T19:50:48;23.90;51.60
52073;DHT22;38074;51.232;6.826;2022-10-31T19:58:04;23.90;51.70
52073;DHT22;38074;51.232;6.826;2022-10-31T20:05:19;23.90;51.60
52073;DHT22;38074;51.232;6.826;2022-10-31T20:12:35;23.90;51.70
52073;DHT22;38074;51.232;6.826;2022-10-31T20:19:50;23.90;51.70
52073;DHT22;38074;51.232;6.826;2022-10-31T20:27:06;23.90;51.50
52073;DHT22;38074;51.232;6.826;2022-10-31T20:34:21;23.90;51.70
52073;DHT22;38074;51.232;6.826;2022-10-31T20:41:37;23.90;51.60
52073;DHT22;38074;51.232;6.826;2022-10-31T20:48:54;23.90;51.60
52073;DHT22;38074;51.232;6.826;2022-10-31T20:56:15;23.90;51.70
52073;DHT22;38074;51.232;6.826;2022-10-31T21:03:30;23.90;51.70
52073;DHT22;38074;51.232;6.826;2022-10-31T21:10:46;23.90;51.60
52073;DHT22;38074;51.232;6.826;2022-10-31T21:18:01;23.90;51.80
52073;DHT22;38074;51.232;6.826;2022-10-31T21:25:17;23.90;51.70
52073;DHT22;38074;51.232;6.826;2022-10-31T21:32:32;23.90;51.60
52073;DHT22;38074;51.232;6.826;2022-10-31T21:39:48;23.90;51.70
52073;DHT22;38074;51.232;6.826;2022-10-31T21:47:03;23.90;51.60
52073;DHT22;38074;51.232;6.826;2022-10-31T21:54:19;23.90;51.80
52073;DHT22;38074;51.232;6.826;2022-10-31T22:01:44;23.90;51.70
52073;DHT22;38074;51.232;6.826;2022-10-31T22:09:02;23.90;51.70
52073;DHT22;38074;51.232;6.826;2022-10-31T22:16:21;23.90;51.50
52073;DHT22;38074;51.232;6.826;2022-10-31T22:23:37;23.90;51.60
52073;DHT22;38074;51.232;6.826;2022-10-31T22:30:52;23.90;51.60
52073;DHT22;38074;51.232;6.826;2022-10-31T22:38:08;23.90;51.60
52073;DHT22;38074;51.232;6.826;2022-10-31T22:45:23;23.90;51.60
52073;DHT22;38074;51.232;6.826;2022-10-31T22:52:39;23.90;51.50
52073;DHT22;38074;51.232;6.826;2022-10-31T22:59:55;23.90;51.60
52073;DHT22;38074;51.232;6.826;2022-10-31T23:07:11;23.90;51.50
52073;DHT22;38074;51.232;6.826;2022-10-31T23:14:26;23.90;51.60
52073;DHT22;38074;51.232;6.826;2022-10-31T23:21:43;23.90;51.50
52073;DHT22;38074;51.232;6.826;2022-10-31T23:29:09;23.90;51.50
52073;DHT22;38074;51.232;6.826;2022-10-31T23:36:24;23.90;51.60
52073;DHT22;38074;51.232;6.826;2022-10-31T23:43:40;23.90;51.60
52073;DHT22;38074;51.232;6.826;2022-10-31T23:50:55;23.90;51.60
52073;DHT22;38074;51.232;6.826;2022-10-31T23:58:10;23.90;51.70
